METAR AND TAF INFORMATION

METAR FOR SVJM
ADDS - METARS form results

(0839 UTC 24 July 2021)
Data provider http://aviationweather.gov/metar/data/
 
METAR text: SVJM 240803Z AUTO 09002KT NCD 23/23 Q1013
Conditions at: SVJM (SAN JUAN LOS MOR, VE) observed 0803 UTC 24 July 2021
Temperature: 23.0°C (73°F)
Dewpoint: 23.0°C (73°F) [RH = 100%]
Pressure (altimeter): 29.91 inches Hg (1013.0 mb)
Winds: from the E (90 degrees) at 2 MPH (2 knots; 1.0 m/s)
Visibility: missing
Ceiling: at least 12,000 feet AGL
Clouds: sky clear below 12,000 feet AGL
Weather: no significant weather observed at this time

 

AIRPORT MAP

 

RUNWAY INFORMATION

Runway 06 Runway length 4990 ft Runway width 75 ft
Runway elevation 0 ft Runway displaced threshold 0 ft Runway heading 49
Runway 24 Runway length 4990 ft Runway width 75 ft
Runway elevation 0 ft Runway displaced threshold 0 ft Runway heading 229

 

AIRPORT FREQUENCIES


 

AIRPORT NEAR NAVIGATION AIDS